Time;durP1;ratioP1;P1;durP2;ratioP2;P2;SDS_P1;SDS_P2;PMS_P1;PMS_P2;Temp;Humidity;BMP_temperature;BMP_pressure;BME280_temperature;BME280_humidity;BME280_pressure;Samples;Min_cycle;Max_cycle;Signal;HPM_P1;HPM_P2
2021/03/23 00:00:46;;;;;;;23.95;8.80;;;;;;;4.39;70.75;102762.94;4994202;28;123898;-69
2021/03/23 00:03:20;;;;;;;23.63;8.93;;;;;;;4.37;70.91;102767.22;4995172;28;123961;-69
2021/03/23 00:05:46;;;;;;;25.42;9.32;;;;;;;4.35;70.96;102765.41;4995461;28;109175;-69
2021/03/23 00:08:57;;;;;;;26.10;10.32;;;;;;;4.36;71.01;102769.78;4995045;28;108889;-70
2021/03/23 00:11:27;;;;;;;24.90;8.93;;;;;;;4.29;71.09;102755.69;4993187;28;125224;-70
2021/03/23 00:13:55;;;;;;;27.50;8.82;;;;;;;4.30;71.18;102757.47;4993321;28;124519;-70
2021/03/23 00:16:24;;;;;;;29.10;9.70;;;;;;;4.31;71.17;102766.16;5001399;28;109264;-71
2021/03/23 00:18:51;;;;;;;27.92;9.50;;;;;;;4.28;71.39;102763.44;5015278;28;109249;-71
2021/03/23 00:21:17;;;;;;;24.10;9.07;;;;;;;4.27;71.36;102770.34;5012879;28;124512;-69
2021/03/23 00:23:44;;;;;;;20.88;9.80;;;;;;;4.27;71.32;102761.66;5012786;28;123827;-69
2021/03/23 00:26:11;;;;;;;26.92;10.63;;;;;;;4.26;71.73;102763.38;5011708;28;109382;-69
2021/03/23 00:28:38;;;;;;;22.58;8.55;;;;;;;4.34;71.62;102772.31;5012195;28;110355;-70
2021/03/23 00:31:04;;;;;;;23.42;9.57;;;;;;;4.47;71.14;102764.94;5012079;28;124851;-70
2021/03/23 00:33:30;;;;;;;24.88;9.93;;;;;;;4.46;71.06;102763.16;5013603;28;123920;-70
2021/03/23 00:36:00;;;;;;;20.38;8.68;;;;;;;4.46;71.09;102768.34;5013116;28;109512;-69
2021/03/23 00:38:29;;;;;;;25.40;10.02;;;;;;;4.47;71.03;102764.94;5014091;28;109327;-69
2021/03/23 00:40:56;;;;;;;29.25;9.30;;;;;;;4.49;70.93;102763.25;5013652;28;124244;-69
2021/03/23 00:43:23;;;;;;;28.50;10.45;;;;;;;4.45;70.88;102767.47;5012474;28;124144;-69
2021/03/23 00:45:49;;;;;;;21.60;9.55;;;;;;;4.41;71.03;102765.59;5013876;28;110293;-69
2021/03/23 00:48:16;;;;;;;34.33;9.98;;;;;;;4.41;71.05;102762.09;5014724;28;109938;-69
2021/03/23 00:50:50;;;;;;;27.45;9.52;;;;;;;4.36;71.01;102762.84;5013805;28;125130;-73
2021/03/23 00:53:16;;;;;;;;;;;;;;;4.31;71.38;102771.34;5013144;28;123053;-69
2021/03/23 00:55:42;;;;;;;29.92;9.88;;;;;;;4.33;71.52;102764.47;5014669;28;109375;-69
2021/03/23 00:58:08;;;;;;;21.48;9.80;;;;;;;4.31;71.35;102763.56;5013700;28;108848;-69
2021/03/23 01:00:35;;;;;;;30.23;10.30;;;;;;;4.29;71.40;102767.78;5013679;28;123927;-69
2021/03/23 01:03:01;;;;;;;29.33;11.18;;;;;;;4.28;71.69;102759.13;5013494;28;124648;-69
2021/03/23 01:05:31;;;;;;;29.13;10.73;;;;;;;4.29;71.50;102765.19;5013972;28;109257;-69
2021/03/23 01:07:58;;;;;;;27.10;10.30;;;;;;;4.27;71.66;102759.06;5012744;28;110288;-69
2021/03/23 01:10:27;;;;;;;26.38;10.65;;;;;;;4.26;71.59;102755.59;5013291;28;124401;-69
2021/03/23 01:12:54;;;;;;;28.63;11.13;;;;;;;4.23;71.77;102755.50;5012134;28;124185;-69
2021/03/23 01:15:23;;;;;;;26.55;10.65;;;;;;;4.24;71.74;102759.84;5013779;28;108841;-69
2021/03/23 01:17:49;;;;;;;32.05;10.95;;;;;;;4.23;71.99;102752.91;5013557;28;110048;-69
2021/03/23 01:20:17;;;;;;;26.95;10.40;;;;;;;4.23;71.89;102755.50;5013657;28;124088;-69
2021/03/23 01:22:43;;;;;;;33.75;11.57;;;;;;;4.17;72.08;102760.47;5014009;28;123886;-70
2021/03/23 01:25:10;;;;;;;31.55;10.93;;;;;;;4.20;72.16;102759.72;5014180;28;109229;-70
2021/03/23 01:27:36;;;;;;;28.42;11.20;;;;;;;4.18;72.24;102757.03;5011415;28;109081;-70
2021/03/23 01:30:05;;;;;;;28.05;11.43;;;;;;;4.16;72.36;102750.03;5010210;28;122996;-70
2021/03/23 01:32:31;;;;;;;27.50;11.73;;;;;;;4.15;72.44;102750.88;5012444;28;123810;-70
2021/03/23 01:34:57;;;;;;;33.58;12.20;;;;;;;4.22;72.33;102758.94;5011780;28;110203;-70
2021/03/23 01:37:23;;;;;;;29.92;11.82;;;;;;;4.16;72.40;102745.72;5011769;28;109708;-70
2021/03/23 01:39:49;;;;;;;27.75;10.75;;;;;;;4.13;72.55;102739.53;5013084;28;124114;-71
2021/03/23 01:42:17;;;;;;;37.08;11.75;;;;;;;4.06;72.81;102751.44;5012665;28;123910;-71
2021/03/23 01:44:46;;;;;;;37.35;12.90;;;;;;;4.13;72.77;102745.63;5014214;28;109089;-71
2021/03/23 01:47:12;;;;;;;33.15;11.88;;;;;;;4.11;73.00;102734.31;5013265;28;109912;-70
2021/03/23 01:49:46;;;;;;;29.35;11.57;;;;;;;4.12;73.05;102737.78;5012195;28;124338;-70
2021/03/23 01:52:14;;;;;;;;;;;;;;;4.08;73.06;102740.28;5013887;28;124093;-70
2021/03/23 01:54:46;;;;;;;34.95;12.18;;;;;;;4.06;73.26;102743.63;5012499;27;109339;-70
2021/03/23 01:57:13;;;;;;;41.60;13.60;;;;;;;4.02;73.56;102745.25;5011331;28;110307;-70
2021/03/23 01:59:45;;;;;;;33.13;12.88;;;;;;;4.01;73.53;102745.22;5011674;28;124299;-69
2021/03/23 02:02:19;;;;;;;32.38;13.63;;;;;;;3.92;73.94;102735.38;5011022;28;123905;-69
2021/03/23 02:04:58;;;;;;;;;;;;;;;;;;;;;
2021/03/23 02:07:26;;;;;;;35.22;12.57;;;;;;;3.70;74.32;102738.06;5011309;28;110227;-71
2021/03/23 02:10:10;;;;;;;32.03;12.85;;;;;;;3.66;74.16;102744.88;5010199;28;123902;-74
2021/03/23 02:12:49;;;;;;;34.67;12.13;;;;;;;3.80;74.53;102740.16;5010302;28;123445;-73
2021/03/23 02:15:19;;;;;;;35.90;11.93;;;;;;;3.70;74.52;102730.28;5012329;28;109841;-74
2021/03/23 02:18:05;;;;;;;31.52;11.77;;;;;;;3.74;74.73;102738.25;5009008;28;109823;-71
2021/03/23 02:20:31;;;;;;;35.95;12.80;;;;;;;3.72;74.89;102739.00;5011640;28;123691;-69
2021/03/23 02:23:08;;;;;;;28.65;12.30;;;;;;;3.64;75.00;102737.88;5010930;28;123828;-70
2021/03/23 02:25:40;;;;;;;31.83;13.10;;;;;;;3.58;75.13;102735.03;5010487;28;110149;-71
2021/03/23 02:28:09;;;;;;;32.53;12.70;;;;;;;3.51;75.58;102728.75;5011046;28;110273;-69
2021/03/23 02:30:41;;;;;;;33.00;13.93;;;;;;;3.54;75.68;102733.19;5011486;28;123770;-70
2021/03/23 02:33:08;;;;;;;30.85;12.55;;;;;;;3.45;75.84;102732.00;5010801;28;124208;-70
2021/03/23 02:35:34;;;;;;;32.28;12.40;;;;;;;3.27;76.25;102739.13;5012031;28;109095;-70
2021/03/23 02:38:01;;;;;;;31.70;12.98;;;;;;;3.28;76.56;102725.31;5012820;28;110249;-71
2021/03/23 02:40:28;;;;;;;31.20;12.73;;;;;;;3.29;76.56;102721.94;5011507;28;124167;-71
2021/03/23 02:42:54;;;;;;;35.83;14.57;;;;;;;3.32;76.60;102719.44;5011195;28;124236;-71
2021/03/23 02:45:21;;;;;;;33.00;12.88;;;;;;;3.33;76.79;102717.72;5012074;28;109225;-70
2021/03/23 02:47:47;;;;;;;39.78;13.23;;;;;;;3.33;76.79;102722.91;5012132;28;109932;-70
2021/03/23 02:50:18;;;;;;;32.85;13.57;;;;;;;3.22;77.09;102723.41;5010869;28;123938;-70
2021/03/23 02:52:49;;;;;;;31.13;12.30;;;;;;;3.25;77.09;102721.72;5010165;28;123947;-73
2021/03/23 02:55:15;;;;;;;32.58;12.48;;;;;;;3.27;77.32;102718.38;5012352;28;108296;-73
2021/03/23 02:57:44;;;;;;;32.42;13.75;;;;;;;3.23;77.53;102706.13;5011036;28;109993;-73
2021/03/23 03:00:17;;;;;;;34.58;13.07;;;;;;;3.13;77.64;102710.09;5010623;28;124171;-69
2021/03/23 03:02:43;;;;;;;33.22;12.85;;;;;;;3.18;77.63;102705.09;5011715;28;124171;-70
2021/03/23 03:05:10;;;;;;;29.77;12.88;;;;;;;3.17;77.59;102705.88;5012043;28;109558;-74
2021/03/23 03:07:43;;;;;;;38.58;13.07;;;;;;;3.09;77.65;102716.00;5010583;28;108179;-70
2021/03/23 03:10:10;;;;;;;33.13;13.07;;;;;;;2.95;77.57;102714.59;5011901;28;124514;-72
2021/03/23 03:12:36;;;;;;;28.40;12.80;;;;;;;2.89;77.90;102712.66;5025808;28;123804;-71
2021/03/23 03:15:04;;;;;;;40.42;15.18;;;;;;;2.77;78.21;102709.59;5011847;28;109821;-72
2021/03/23 03:17:30;;;;;;;33.65;13.50;;;;;;;2.74;78.16;102716.38;5014465;28;110533;-74
2021/03/23 03:19:56;;;;;;;27.35;12.23;;;;;;;2.78;78.13;102708.75;5012443;28;123997;-70
2021/03/23 03:22:22;;;;;;;29.20;13.30;;;;;;;2.71;78.23;102714.53;5011884;28;124095;-69
2021/03/23 03:24:48;;;;;;;31.42;13.07;;;;;;;2.61;78.42;102712.44;5013800;28;109294;-70
2021/03/23 03:27:14;;;;;;;32.92;13.73;;;;;;;2.59;78.70;102714.94;5013257;28;110115;-71
2021/03/23 03:29:40;;;;;;;30.15;13.40;;;;;;;2.58;78.70;102707.09;5012493;28;123563;-72
2021/03/23 03:32:11;;;;;;;34.03;13.43;;;;;;;2.53;78.81;102722.47;5012755;28;123976;-73
2021/03/23 03:34:37;;;;;;;33.03;12.93;;;;;;;2.37;78.97;102711.44;5012871;28;109245;-70
2021/03/23 03:37:04;;;;;;;34.47;13.40;;;;;;;2.40;79.14;102711.56;5013746;28;109958;-70
2021/03/23 03:39:30;;;;;;;38.63;14.27;;;;;;;2.38;79.00;102714.09;5014076;28;123861;-70
2021/03/23 03:41:56;;;;;;;40.28;14.23;;;;;;;2.46;79.46;102720.47;5013170;28;123844;-70
2021/03/23 03:44:22;;;;;;;32.00;13.15;;;;;;;2.44;79.35;102719.53;5014550;28;109159;-70
2021/03/23 03:46:48;;;;;;;26.90;13.02;;;;;;;2.56;79.42;102719.13;5014851;28;110520;-69
2021/03/23 03:49:14;;;;;;;35.58;13.30;;;;;;;2.47;79.24;102722.22;5013864;28;124050;-70
2021/03/23 03:51:48;;;;;;;35.00;14.00;;;;;;;2.64;79.29;102717.72;5013742;28;123864;-72
2021/03/23 03:54:14;;;;;;;29.05;13.38;;;;;;;2.56;79.17;102714.81;5014192;28;109007;-70
2021/03/23 03:56:40;;;;;;;30.73;13.57;;;;;;;2.51;79.38;102720.66;5008371;28;109521;-72
2021/03/23 03:59:12;;;;;;;38.00;13.85;;;;;;;2.53;79.38;102719.88;5010243;28;123505;-73
2021/03/23 04:01:41;;;;;;;31.88;14.20;;;;;;;2.40;79.41;102714.16;5010320;28;123852;-75
2021/03/23 04:04:10;;;;;;;37.13;13.45;;;;;;;2.57;79.91;102719.19;5012512;28;110186;-75
2021/03/23 04:06:42;;;;;;;34.15;13.75;;;;;;;2.67;79.80;102709.19;5010745;28;109727;-73
2021/03/23 04:09:11;;;;;;;37.00;14.15;;;;;;;2.69;79.94;102720.47;5014344;28;124100;-72
2021/03/23 04:11:37;;;;;;;34.55;13.23;;;;;;;2.68;79.61;102718.72;5012210;28;123959;-73
2021/03/23 04:14:03;;;;;;;31.73;13.63;;;;;;;2.56;79.52;102719.13;5013050;28;109057;-73
2021/03/23 04:16:31;;;;;;;30.73;12.57;;;;;;;2.61;79.67;102718.50;5013350;28;109776;-71
2021/03/23 04:19:08;;;;;;;33.40;13.68;;;;;;;2.57;79.74;102719.19;5011276;28;124480;-73
2021/03/23 04:21:39;;;;;;;32.08;13.50;;;;;;;2.54;79.92;102716.47;5012688;28;124160;-74
2021/03/23 04:24:14;;;;;;;37.97;14.65;;;;;;;2.63;79.83;102719.44;5012161;28;109161;-76
2021/03/23 04:26:41;;;;;;;36.58;14.95;;;;;;;2.63;79.99;102718.53;5013139;28;110278;-69
2021/03/23 04:29:06;;;;;;;32.60;14.07;;;;;;;2.59;79.88;102711.47;5011224;28;123868;-70
2021/03/23 04:31:42;;;;;;;29.15;13.23;;;;;;;2.45;79.83;102713.50;5011472;28;124217;-72
2021/03/23 04:34:13;;;;;;;33.97;13.85;;;;;;;2.48;80.16;102713.63;5012347;28;109181;-69
2021/03/23 04:36:41;;;;;;;33.63;13.43;;;;;;;2.47;80.19;102718.75;5012323;28;110340;-69
2021/03/23 04:39:10;;;;;;;33.90;12.90;;;;;;;2.31;79.88;102712.97;5012657;28;124021;-69
2021/03/23 04:41:37;;;;;;;32.72;12.80;;;;;;;2.42;80.27;102718.56;5012569;28;124396;-70
2021/03/23 04:44:07;;;;;;;31.55;13.45;;;;;;;2.41;80.46;102719.41;5011240;28;109478;-72
2021/03/23 04:46:33;;;;;;;29.38;13.80;;;;;;;2.42;80.44;102715.09;4993287;28;111309;-69
2021/03/23 04:48:59;;;;;;;31.95;12.38;;;;;;;2.44;80.26;102716.94;5011692;28;125879;-69
2021/03/23 04:51:28;;;;;;;34.05;13.05;;;;;;;2.43;80.18;102716.88;5010572;28;124401;-69
2021/03/23 04:54:08;;;;;;;34.47;13.35;;;;;;;2.39;80.40;102715.00;5012104;28;111381;-69
2021/03/23 04:56:58;;;;;;;38.38;14.02;;;;;;;2.37;80.42;102720.09;5026066;28;110240;-74
2021/03/23 04:59:31;;;;;;;29.38;12.55;;;;;;;2.50;80.47;102724.06;5008968;28;126385;-69
2021/03/23 05:01:57;;;;;;;35.63;13.40;;;;;;;2.48;80.47;102723.97;5011541;28;123746;-70
2021/03/23 05:04:23;;;;;;;30.60;13.20;;;;;;;2.46;80.35;102717.88;5013332;28;109096;-71
2021/03/23 05:06:49;;;;;;;39.22;15.40;;;;;;;2.40;80.65;102724.53;5013029;28;110191;-71
2021/03/23 05:09:15;;;;;;;33.58;13.18;;;;;;;2.50;80.65;102726.66;5012173;28;124128;-71
2021/03/23 05:11:41;;;;;;;32.08;12.50;;;;;;;2.55;80.53;102723.41;5010756;28;124123;-70
2021/03/23 05:14:09;;;;;;;31.55;12.95;;;;;;;2.41;80.64;102724.59;5011807;28;109405;-70
2021/03/23 05:16:35;;;;;;;36.55;13.32;;;;;;;2.49;80.58;102723.19;5011485;28;110425;-70
2021/03/23 05:19:02;;;;;;;32.72;13.88;;;;;;;2.53;80.65;102727.66;5011438;28;124968;-69
2021/03/23 05:21:28;;;;;;;35.55;13.18;;;;;;;2.46;80.72;102728.22;5012879;28;123839;-69
2021/03/23 05:24:00;;;;;;;30.25;12.70;;;;;;;2.53;80.86;102725.06;5012493;28;109231;-70
2021/03/23 05:26:27;;;;;;;32.35;13.00;;;;;;;2.45;80.86;102728.19;5012936;28;110194;-68
2021/03/23 05:28:53;;;;;;;31.00;12.88;;;;;;;2.52;80.67;102725.00;5011452;28;124104;-69
2021/03/23 05:31:20;;;;;;;34.28;13.27;;;;;;;2.52;80.66;102722.44;5013506;28;123849;-69
2021/03/23 05:33:49;;;;;;;29.90;12.70;;;;;;;2.51;80.72;102725.84;5012665;28;109095;-69
2021/03/23 05:36:14;;;;;;;38.75;13.90;;;;;;;2.49;80.85;102718.00;5011721;28;109958;-70
2021/03/23 05:38:40;;;;;;;28.92;13.20;;;;;;;2.49;80.79;102718.00;5012769;28;123982;-70
2021/03/23 05:41:16;;;;;;;28.33;12.82;;;;;;;2.40;80.82;102716.75;5012116;28;123774;-70
2021/03/23 05:44:08;;;;;;;30.55;13.45;;;;;;;2.40;80.98;102717.63;5011170;28;110123;-70
2021/03/23 05:46:36;;;;;;;31.25;12.77;;;;;;;2.29;nan;102714.63;5013849;28;110050;-70
2021/03/23 05:49:11;;;;;;;30.52;13.43;;;;;;;2.25;nan;102724.78;5011456;28;127367;-70
2021/03/23 05:51:37;;;;;;;27.25;11.68;;;;;;;2.36;nan;102715.72;5010789;28;123898;-71
2021/03/23 05:54:14;;;;;;;37.03;14.85;;;;;;;2.30;nan;102728.44;5012880;28;109336;-70
2021/03/23 05:56:43;;;;;;;40.40;13.70;;;;;;;2.30;nan;102729.34;5011629;28;110244;-69
2021/03/23 05:59:21;;;;;;;29.02;13.82;;;;;;;2.34;nan;102725.16;5010561;28;123986;-70
2021/03/23 06:02:01;;;;;;;35.75;12.85;;;;;;;2.31;nan;102728.50;5010105;28;123845;-70
2021/03/23 06:04:56;;;;;;;34.35;13.63;;;;;;;2.38;nan;102729.66;5010579;28;109077;-70
2021/03/23 06:07:22;;;;;;;28.95;12.35;;;;;;;2.41;nan;102739.25;5010546;28;110383;-70
2021/03/23 06:09:49;;;;;;;32.47;11.90;;;;;;;2.48;nan;102736.94;5011429;28;123798;-71
2021/03/23 06:12:28;;;;;;;31.40;14.02;;;;;;;2.52;nan;102740.56;5011602;28;124285;-71
2021/03/23 06:15:09;;;;;;;39.58;16.13;;;;;;;2.58;nan;102744.25;5013145;28;109286;-70
2021/03/23 06:18:08;;;;;;;34.42;13.60;;;;;;;2.63;nan;102737.56;5012717;28;109980;-70
2021/03/23 06:20:50;;;;;;;44.03;16.23;;;;;;;2.63;nan;102740.16;5012277;28;124516;-70
2021/03/23 06:23:38;;;;;;;40.97;14.27;;;;;;;2.66;nan;102746.28;5011300;28;124186;-70
2021/03/23 06:26:13;;;;;;;34.72;15.85;;;;;;;2.71;nan;102745.63;5010213;28;109442;-69
2021/03/23 06:28:56;;;;;;;42.25;18.77;;;;;;;2.72;nan;102751.69;5011789;28;109793;-70
2021/03/23 06:31:40;;;;;;;34.17;13.63;;;;;;;2.73;nan;102746.59;5011088;28;124491;-70
2021/03/23 06:34:11;;;;;;;;;;;;;;;2.77;nan;102752.78;5011448;28;123739;-70
2021/03/23 06:36:37;;;;;;;29.77;13.18;;;;;;;2.81;nan;102752.06;5011255;28;110800;-71
2021/03/23 06:39:04;;;;;;;39.45;16.35;;;;;;;2.84;nan;102752.19;5011836;28;110290;-69
2021/03/23 06:41:33;;;;;;;37.30;14.50;;;;;;;2.87;nan;102754.91;5011759;28;124680;-71
2021/03/23 06:44:14;;;;;;;40.53;15.07;;;;;;;2.86;nan;102755.72;5010567;28;124603;-70
2021/03/23 06:46:46;;;;;;;43.88;16.52;;;;;;;2.92;nan;102753.34;5010557;28;109146;-70
2021/03/23 06:49:15;;;;;;;35.67;14.02;;;;;;;2.91;nan;102749.00;5007237;28;110465;-70
2021/03/23 06:51:52;;;;;;;29.38;12.55;;;;;;;2.98;nan;102756.19;4998538;28;124551;-70
2021/03/23 06:54:27;;;;;;;36.65;13.55;;;;;;;3.03;nan;102753.75;5000350;28;124020;-70
2021/03/23 06:57:12;;;;;;;29.65;13.30;;;;;;;3.02;nan;102754.59;5001879;28;109451;-70
2021/03/23 06:59:48;;;;;;;31.55;12.90;;;;;;;3.08;nan;102752.25;4994182;28;110146;-70
2021/03/23 07:02:31;;;;;;;30.85;12.55;;;;;;;3.16;nan;102754.28;4995187;28;124140;-70
2021/03/23 07:05:17;;;;;;;52.35;19.45;;;;;;;3.28;nan;102758.16;4994843;28;124578;-70
2021/03/23 07:07:58;;;;;;;40.30;15.63;;;;;;;3.32;nan;102762.66;5014050;28;109283;-70
2021/03/23 07:10:39;;;;;;;43.00;16.42;;;;;;;3.38;nan;102755.97;5003021;28;110618;-71
2021/03/23 07:13:07;;;;;;;28.67;12.18;;;;;;;3.52;nan;102750.41;5008754;28;124102;-68
2021/03/23 07:15:35;;;;;;;27.20;13.77;;;;;;;3.60;nan;102743.75;4991256;28;124100;-69
2021/03/23 07:18:20;;;;;;;28.85;13.23;;;;;;;3.69;nan;102744.97;4992910;28;110193;-69
2021/03/23 07:20:49;;;;;;;31.00;12.60;;;;;;;3.79;nan;102747.06;4994011;28;110304;-69
2021/03/23 07:23:35;;;;;;;31.25;12.07;;;;;;;3.94;nan;102741.50;4992561;28;125146;-70
2021/03/23 07:26:29;;;;;;;35.00;11.50;;;;;;;4.15;nan;102753.47;4993897;28;123930;-70
2021/03/23 07:29:10;;;;;;;27.83;11.07;;;;;;;4.27;nan;102749.56;4994051;28;110635;-70
2021/03/23 07:31:46;;;;;;;28.77;10.35;;;;;;;4.37;nan;102759.41;4995582;28;109598;-70
2021/03/23 07:34:22;;;;;;;32.58;10.85;;;;;;;4.50;nan;102765.91;4993757;28;124119;-70
2021/03/23 07:36:57;;;;;;;21.90;9.98;;;;;;;-143.23;100.00;60835.56;5078249;28;122749;-70
2021/03/23 07:39:33;;;;;;;26.42;10.07;;;;;;;-143.23;100.00;60835.56;5080845;28;32811;-70
2021/03/23 07:42:06;;;;;;;28.00;10.27;;;;;;;-143.23;100.00;60835.56;5081041;28;31594;-70
2021/03/23 07:44:43;;;;;;;28.55;9.68;;;;;;;-143.23;100.00;60835.56;5079498;28;32601;-71
2021/03/23 07:47:47;;;;;;;27.60;10.20;;;;;;;-143.23;100.00;60835.56;5079553;28;32047;-70
2021/03/23 07:50:22;;;;;;;18.08;9.07;;;;;;;-143.23;100.00;60835.56;5078677;28;31652;-69
2021/03/23 07:53:09;;;;;;;26.40;9.10;;;;;;;-143.23;100.00;60835.56;5079717;28;31712;-70
2021/03/23 07:55:36;;;;;;;25.17;9.27;;;;;;;-143.23;100.00;60835.56;5080153;28;32359;-69
2021/03/23 07:58:48;;;;;;;26.15;8.40;;;;;;;-143.23;100.00;60835.56;5079262;28;32294;-69
2021/03/23 08:01:26;;;;;;;23.35;9.05;;;;;;;-143.23;100.00;60835.56;5079251;28;31781;-71
2021/03/23 08:03:57;;;;;;;25.98;8.25;;;;;;;-143.23;100.00;60835.56;5079974;28;31292;-71
2021/03/23 08:07:03;;;;;;;25.95;8.77;;;;;;;-143.23;100.00;60835.56;5085902;28;32502;-71
2021/03/23 08:09:53;;;;;;;24.70;9.02;;;;;;;-143.23;100.00;60835.56;5087982;28;33045;-70
2021/03/23 08:13:04;;;;;;;22.45;8.27;;;;;;;-143.23;100.00;60835.56;5079656;28;31812;-68
2021/03/23 08:15:54;;;;;;;22.85;8.07;;;;;;;-143.23;100.00;60835.56;5077607;28;31230;-70
2021/03/23 08:18:46;;;;;;;20.35;7.82;;;;;;;-143.23;100.00;60835.56;5076422;28;33456;-70
2021/03/23 08:21:37;;;;;;;19.75;8.18;;;;;;;-143.23;100.00;60835.56;5077910;28;32100;-69
2021/03/23 08:24:13;;;;;;;19.75;8.35;;;;;;;-143.23;100.00;60835.56;5077623;28;31772;-69
2021/03/23 08:27:13;;;;;;;25.85;9.00;;;;;;;-143.23;100.00;60835.56;5079473;28;31518;-69
2021/03/23 08:30:17;;;;;;;23.13;7.80;;;;;;;-143.23;100.00;60835.56;5078697;28;33483;-69
2021/03/23 08:33:24;;;;;;;24.13;8.43;;;;;;;-143.23;100.00;60835.56;5068368;28;32134;-70
2021/03/23 08:35:53;;;;;;;24.10;7.70;;;;;;;-143.23;100.00;60835.56;5080131;28;32770;-70
2021/03/23 08:38:56;;;;;;;22.55;8.60;;;;;;;-143.23;100.00;60835.56;5078983;28;31481;-70
2021/03/23 08:41:34;;;;;;;25.33;8.60;;;;;;;-143.23;100.00;60835.56;5078541;28;32375;-70
2021/03/23 08:44:00;;;;;;;23.70;8.57;;;;;;;-143.23;100.00;60835.56;5078854;28;32197;-69
2021/03/23 08:46:34;;;;;;;20.35;6.93;;;;;;;-143.23;100.00;60835.56;5078063;28;32629;-69
2021/03/23 08:49:07;;;;;;;30.23;9.73;;;;;;;-143.23;100.00;60835.56;5076983;28;31556;-69
2021/03/23 08:51:42;;;;;;;24.23;8.40;;;;;;;-143.23;100.00;60835.56;5075033;28;32337;-70
2021/03/23 08:54:08;;;;;;;17.38;7.70;;;;;;;-143.23;100.00;60835.56;5076267;28;32080;-70
2021/03/23 08:56:45;;;;;;;30.40;9.82;;;;;;;-143.23;100.00;60835.56;5080042;28;31772;-70
2021/03/23 08:59:34;;;;;;;23.48;9.63;;;;;;;-143.23;100.00;60835.56;5079407;28;31609;-70
2021/03/23 09:02:21;;;;;;;25.27;10.15;;;;;;;-143.23;100.00;60835.56;5073755;28;32418;-70
2021/03/23 09:04:50;;;;;;;28.27;9.20;;;;;;;-143.23;100.00;60835.56;5077005;28;31636;-70
2021/03/23 09:07:16;;;;;;;25.33;9.68;;;;;;;-143.23;100.00;60835.56;5077999;28;31699;-69
2021/03/23 09:09:45;;;;;;;24.75;9.80;;;;;;;-143.23;100.00;60835.56;5076992;28;32101;-69
2021/03/23 09:12:33;;;;;;;29.65;9.98;;;;;;;-143.23;100.00;60835.56;5076064;28;33358;-69
2021/03/23 09:15:17;;;;;;;28.58;9.73;;;;;;;-143.23;100.00;60835.56;5078979;28;32194;-69
2021/03/23 09:17:50;;;;;;;22.30;9.60;;;;;;;-143.23;100.00;60835.56;5096766;28;31664;-70
2021/03/23 09:20:48;;;;;;;18.80;8.38;;;;;;;-143.23;100.00;60835.56;5100003;28;31473;-69
2021/03/23 09:26:00;;;;;;;30.38;9.70;;;;;;;-143.23;100.00;60835.56;5099537;28;33213;-69
2021/03/23 09:28:29;;;;;;;27.98;9.60;;;;;;;-143.23;100.00;60835.56;5115037;28;30497;-70
2021/03/23 09:31:02;;;;;;;25.17;9.13;;;;;;;-143.23;100.00;60835.56;5099693;27;32379;-69
2021/03/23 09:33:30;;;;;;;18.80;9.35;;;;;;;-143.23;100.00;60835.56;5100075;28;32284;-70
2021/03/23 09:38:39;;;;;;;29.67;10.75;;;;;;;-143.23;100.00;60835.56;5098782;28;31780;-69
2021/03/23 09:41:32;;;;;;;25.95;10.20;;;;;;;-143.23;100.00;60835.56;5099232;28;31567;-70
2021/03/23 09:44:04;;;;;;;19.35;8.90;;;;;;;-143.23;100.00;60835.56;5098974;28;32496;-69
2021/03/23 09:46:45;;;;;;;18.13;7.68;;;;;;;-143.23;100.00;60835.56;5098311;27;32064;-71
2021/03/23 09:49:11;;;;;;;18.00;6.90;;;;;;;-143.23;100.00;60835.56;5095570;28;31825;-67
2021/03/23 09:52:02;;;;;;;13.40;5.40;;;;;;;-143.23;100.00;60835.56;5088342;28;31056;-65
2021/03/23 09:54:31;;;;;;;22.02;6.97;;;;;;;-143.23;100.00;60835.56;5086608;28;33562;-71
2021/03/23 09:57:10;;;;;;;39.70;11.10;;;;;;;-143.23;100.00;60835.56;5085529;28;31961;-69
2021/03/23 09:59:43;;;;;;;30.67;10.52;;;;;;;-143.23;100.00;60835.56;5080512;28;31882;-71
2021/03/23 10:02:32;;;;;;;25.75;11.82;;;;;;;-143.23;100.00;60835.56;5074821;28;31461;-71
2021/03/23 10:05:17;;;;;;;30.10;10.25;;;;;;;-143.23;100.00;60835.56;5075082;28;31778;-71
2021/03/23 10:07:44;;;;;;;21.98;9.50;;;;;;;-143.23;100.00;60835.56;5076435;28;32159;-71
2021/03/23 10:10:29;;;;;;;24.10;11.07;;;;;;;-143.23;100.00;60835.56;5076440;28;32330;-71
2021/03/23 10:13:15;;;;;;;26.98;9.82;;;;;;;-143.23;100.00;60835.56;5075596;28;32488;-72
2021/03/23 10:15:43;;;;;;;27.25;12.02;;;;;;;-143.23;100.00;60835.56;5077869;28;32480;-72
2021/03/23 10:18:31;;;;;;;9.98;4.53;;;;;;;-143.23;100.00;60835.56;5098181;28;33122;-69
2021/03/23 10:21:00;;;;;;;28.05;11.82;;;;;;;-143.23;100.00;60835.56;5092180;28;31794;-71
2021/03/23 10:23:28;;;;;;;29.73;12.30;;;;;;;-143.23;100.00;60835.56;5086242;28;31493;-71
2021/03/23 10:25:55;;;;;;;28.83;11.38;;;;;;;-143.23;100.00;60835.56;5084890;28;33415;-71
2021/03/23 10:28:28;;;;;;;26.42;10.63;;;;;;;-143.23;100.00;60835.56;5090658;28;31854;-69
2021/03/23 10:30:59;;;;;;;25.38;12.45;;;;;;;-143.23;100.00;60835.56;5097055;28;32441;-71
2021/03/23 10:33:32;;;;;;;33.08;10.98;;;;;;;-143.23;100.00;60835.56;5097780;28;20139;-69
2021/03/23 10:36:05;;;;;;;26.55;12.32;;;;;;;-143.23;100.00;60835.56;5098041;28;32541;-70
2021/03/23 10:38:32;;;;;;;33.17;12.70;;;;;;;-143.23;100.00;60835.56;5087475;28;32493;-70
2021/03/23 10:41:20;;;;;;;27.85;13.80;;;;;;;-143.23;100.00;60835.56;5086049;28;32449;-69
2021/03/23 10:43:51;;;;;;;29.33;11.30;;;;;;;-143.23;100.00;60835.56;5091323;28;32473;-69
2021/03/23 10:46:37;;;;;;;32.40;13.57;;;;;;;-143.23;100.00;60835.56;5078580;28;32477;-69
2021/03/23 10:49:29;;;;;;;29.70;12.30;;;;;;;-143.23;100.00;60835.56;5083158;28;32267;-69
2021/03/23 10:52:01;;;;;;;36.20;13.60;;;;;;;-143.23;100.00;60835.56;5088798;28;32807;-70
2021/03/23 10:54:31;;;;;;;16.60;5.25;;;;;;;-143.23;100.00;60835.56;5084529;28;31387;-72
2021/03/23 10:57:17;;;;;;;25.73;10.85;;;;;;;-143.23;100.00;60835.56;5082418;28;33489;-69
2021/03/23 10:59:43;;;;;;;34.50;13.82;;;;;;;-143.23;100.00;60835.56;5085792;28;32471;-70
2021/03/23 11:02:12;;;;;;;31.58;14.55;;;;;;;-143.23;100.00;60835.56;5080571;28;31873;-70
2021/03/23 11:04:56;;;;;;;19.42;8.77;;;;;;;-143.23;100.00;60835.56;5078951;28;31594;-70
2021/03/23 11:07:24;;;;;;;;;;;;;;;-143.23;100.00;60835.56;5094719;28;32300;-69
2021/03/23 11:09:52;;;;;;;24.58;11.43;;;;;;;-143.23;100.00;60835.56;5083978;28;33537;-69
2021/03/23 11:12:19;;;;;;;30.05;11.43;;;;;;;-143.23;100.00;60835.56;5084160;28;31707;-69
2021/03/23 11:14:45;;;;;;;24.15;9.98;;;;;;;-143.23;100.00;60835.56;5097255;28;31626;-70
2021/03/23 11:17:14;;;;;;;20.67;11.40;;;;;;;-143.23;100.00;60835.56;5094419;28;32397;-69
2021/03/23 11:19:44;;;;;;;31.33;10.82;;;;;;;-143.23;100.00;60835.56;5096615;28;32252;-68
2021/03/23 11:22:12;;;;;;;27.63;12.13;;;;;;;-143.23;100.00;60835.56;5085511;28;32776;-70
2021/03/23 11:24:39;;;;;;;26.35;9.75;;;;;;;-143.23;100.00;60835.56;5076389;28;31339;-70
2021/03/23 11:27:05;;;;;;;22.38;10.85;;;;;;;-143.23;100.00;60835.56;5074191;28;33494;-71
2021/03/23 11:29:31;;;;;;;22.15;9.18;;;;;;;-143.23;100.00;60835.56;5078148;28;33193;-71
2021/03/23 11:31:57;;;;;;;16.77;9.50;;;;;;;-143.23;100.00;60835.56;5087084;28;31968;-70
2021/03/23 11:34:24;;;;;;;17.67;9.45;;;;;;;-143.23;100.00;60835.56;5078826;28;32263;-70
2021/03/23 11:36:51;;;;;;;18.58;9.73;;;;;;;-143.23;100.00;60835.56;5084237;28;32111;-70
2021/03/23 11:39:19;;;;;;;18.85;8.98;;;;;;;-143.23;100.00;60835.56;5084060;28;33108;-70
2021/03/23 11:41:54;;;;;;;21.58;9.55;;;;;;;-143.23;100.00;60835.56;5080923;28;31533;-70
2021/03/23 11:44:25;;;;;;;23.85;10.43;;;;;;;-143.23;100.00;60835.56;5085859;28;32243;-70